createdAt,value
2018-03-03T00:01:15.630Z,101.27
2018-03-03T00:03:43.188Z,95.90
2018-03-03T00:06:10.778Z,101.93
2018-03-03T00:08:38.337Z,104.40
2018-03-03T00:11:05.945Z,100.43
2018-03-03T00:13:34.264Z,104.00
2018-03-03T00:16:01.821Z,95.17
2018-03-03T00:18:29.400Z,108.23
2018-03-03T00:20:56.956Z,109.17
2018-03-03T00:23:24.537Z,109.07
2018-03-03T00:25:52.089Z,112.67
2018-03-03T00:28:20.888Z,104.30
2018-03-03T00:30:49.237Z,109.57
2018-03-03T00:33:16.793Z,97.63
2018-03-03T00:35:44.388Z,107.63
2018-03-03T00:38:11.972Z,109.70
2018-03-03T00:40:39.524Z,105.20
2018-03-03T00:43:07.102Z,103.80
2018-03-03T00:45:34.662Z,108.70
2018-03-03T00:48:02.249Z,114.07
2018-03-03T00:50:29.821Z,108.43
2018-03-03T00:52:57.376Z,110.27
2018-03-03T00:55:24.954Z,110.77
2018-03-03T00:57:52.517Z,96.07
2018-03-03T01:00:20.103Z,105.27
2018-03-03T01:02:47.671Z,113.67
2018-03-03T01:05:15.246Z,112.40
2018-03-03T01:07:42.828Z,107.03
2018-03-03T01:10:10.381Z,105.43
2018-03-03T01:12:37.972Z,111.37
2018-03-03T01:15:05.532Z,106.47
2018-03-03T01:17:33.140Z,98.57
2018-03-03T01:20:01.482Z,98.10
2018-03-03T01:22:29.051Z,103.40
2018-03-03T01:24:56.662Z,109.53
2018-03-03T01:27:24.991Z,115.27
2018-03-03T01:29:52.565Z,105.50
2018-03-03T01:32:20.873Z,105.87
2018-03-03T01:34:48.441Z,109.50
2018-03-03T01:37:16.036Z,105.80
2018-03-03T01:39:43.597Z,111.33
2018-03-03T01:42:11.182Z,110.27
2018-03-03T01:44:38.758Z,99.17
2018-03-03T01:47:06.333Z,110.57
2018-03-03T01:49:33.912Z,107.33
2018-03-03T01:52:02.239Z,113.03
2018-03-03T01:54:29.827Z,115.03
2018-03-03T01:56:57.387Z,115.40
2018-03-03T01:59:24.959Z,105.10
2018-03-03T02:01:52.532Z,105.03
2018-03-03T02:04:20.089Z,106.77
2018-03-03T02:06:47.692Z,105.07
2018-03-03T02:09:15.270Z,107.43
2018-03-03T02:11:42.820Z,107.83
2018-03-03T02:14:10.406Z,113.27
2018-03-03T02:16:37.974Z,110.83
2018-03-03T02:19:05.544Z,104.50
2018-03-03T02:21:33.096Z,109.40
2018-03-03T02:24:00.681Z,111.03
2018-03-03T02:26:28.257Z,112.30
2018-03-03T02:28:55.824Z,109.20
2018-03-03T02:31:23.406Z,112.07
2018-03-03T02:33:50.962Z,107.97
2018-03-03T02:36:18.524Z,112.43
2018-03-03T02:38:46.130Z,104.43
2018-03-03T02:41:13.690Z,101.03
2018-03-03T02:43:41.260Z,109.53
2018-03-03T02:46:08.808Z,114.20
2018-03-03T02:48:36.360Z,110.70
2018-03-03T02:51:04.709Z,112.90
2018-03-03T02:53:32.257Z,107.97
2018-03-03T02:55:59.861Z,112.67
2018-03-03T02:58:27.408Z,100.80
2018-03-03T03:00:54.982Z,97.87
2018-03-03T03:03:22.565Z,109.23
2018-03-03T03:05:50.131Z,106.03
2018-03-03T03:08:17.749Z,111.30
2018-03-03T03:10:45.349Z,114.53
2018-03-03T03:13:12.912Z,109.43
2018-03-03T03:15:40.485Z,98.57
2018-03-03T03:18:08.039Z,103.93
2018-03-03T03:20:35.633Z,100.67
2018-03-03T03:23:03.197Z,101.63
2018-03-03T03:25:30.777Z,111.43
2018-03-03T03:27:58.358Z,104.27
2018-03-03T03:30:25.914Z,108.00
2018-03-03T03:32:53.492Z,107.87
2018-03-03T03:35:21.050Z,110.07
2018-03-03T03:37:48.624Z,107.27
2018-03-03T03:40:16.169Z,112.10
2018-03-03T03:42:44.528Z,102.43
2018-03-03T03:45:12.101Z,101.20
2018-03-03T03:47:39.665Z,111.53
2018-03-03T03:50:07.236Z,90.73
2018-03-03T03:52:34.786Z,106.23
2018-03-03T03:55:02.370Z,102.70
2018-03-03T03:57:29.932Z,99.03
2018-03-03T03:59:57.518Z,106.17
2018-03-03T04:02:25.078Z,101.67
2018-03-03T04:04:52.633Z,103.60
2018-03-03T04:07:20.232Z,103.53
2018-03-03T04:09:47.790Z,106.77
2018-03-03T04:12:15.384Z,100.37
2018-03-03T04:14:42.946Z,107.50
2018-03-03T04:17:10.524Z,95.77
2018-03-03T04:19:38.069Z,96.90
2018-03-03T04:22:05.613Z,103.60
2018-03-03T04:24:33.199Z,102.87
2018-03-03T04:27:00.745Z,105.10
2018-03-03T04:29:29.057Z,101.50
2018-03-03T04:31:56.936Z,104.70
2018-03-03T04:34:24.485Z,96.13
2018-03-03T04:36:52.800Z,107.07
2018-03-03T04:39:20.395Z,103.60
2018-03-03T04:41:47.957Z,103.37
2018-03-03T04:44:15.517Z,98.77
2018-03-03T04:46:43.096Z,90.03
2018-03-03T04:49:10.694Z,103.33
2018-03-03T04:51:38.227Z,101.70
2018-03-03T04:54:05.800Z,106.27
2018-03-03T04:56:33.350Z,98.70
2018-03-03T05:02:10.048Z,101.40
2018-03-03T05:07:58.257Z,103.07
2018-03-03T05:13:28.639Z,102.33
2018-03-03T05:16:17.041Z,99.80
2018-03-03T05:18:59.464Z,95.47
2018-03-03T05:21:32.732Z,91.63
2018-03-03T05:24:05.896Z,101.17
2018-03-03T05:26:43.409Z,99.70
2018-03-03T05:29:16.678Z,92.63
2018-03-03T05:32:00.972Z,98.07
2018-03-03T05:34:31.321Z,99.50
2018-03-03T05:40:22.979Z,97.93
2018-03-03T05:42:56.221Z,98.20
2018-03-03T05:48:44.439Z,100.07
2018-03-03T05:54:18.480Z,99.33
2018-03-03T05:56:51.733Z,92.87
2018-03-03T05:59:24.903Z,95.27
2018-03-03T06:02:08.299Z,96.63
2018-03-03T06:04:42.325Z,96.93
2018-03-03T06:07:16.181Z,99.83
2018-03-03T06:09:58.637Z,90.90
2018-03-03T06:12:26.185Z,95.57
2018-03-03T06:14:53.740Z,95.87
2018-03-03T06:17:21.316Z,96.33
2018-03-03T06:19:48.878Z,100.37
2018-03-03T06:22:16.429Z,85.27
2018-03-03T06:24:44.785Z,90.73
2018-03-03T06:27:12.329Z,96.87
2018-03-03T06:29:39.889Z,99.27
2018-03-03T06:32:07.463Z,85.83
2018-03-03T06:34:35.021Z,90.77
2018-03-03T06:37:02.586Z,94.53
2018-03-03T06:39:30.180Z,98.63
2018-03-03T06:41:57.716Z,90.17
2018-03-03T06:44:26.028Z,89.37
2018-03-03T06:46:53.603Z,96.10
2018-03-03T06:49:21.160Z,101.57
2018-03-03T06:51:48.721Z,97.83
2018-03-03T06:54:17.075Z,88.33
2018-03-03T06:56:44.640Z,100.90
2018-03-03T06:59:12.180Z,87.20
2018-03-03T07:01:39.760Z,95.10
2018-03-03T07:04:07.301Z,92.97
2018-03-03T07:06:34.869Z,96.13
2018-03-03T07:09:02.452Z,95.73
2018-03-03T07:11:30.003Z,95.80
2018-03-03T07:13:58.323Z,85.47
2018-03-03T07:16:25.900Z,95.93
2018-03-03T07:18:53.460Z,91.57
2018-03-03T07:21:21.006Z,93.57
2018-03-03T07:23:49.351Z,93.83
2018-03-03T07:26:16.901Z,90.20
2018-03-03T07:28:44.460Z,90.53
2018-03-03T07:31:12.036Z,91.60
2018-03-03T07:33:39.591Z,89.53
2018-03-03T07:36:07.917Z,95.50
2018-03-03T07:38:35.501Z,84.73
2018-03-03T07:41:03.128Z,88.30
2018-03-03T07:43:30.692Z,84.77
2018-03-03T07:45:59.332Z,85.27
2018-03-03T07:48:26.925Z,86.20
2018-03-03T07:50:54.956Z,88.40
2018-03-03T07:53:29.327Z,86.80
2018-03-03T07:55:56.888Z,82.17
2018-03-03T07:58:36.284Z,82.07
2018-03-03T08:01:04.600Z,80.70
2018-03-03T08:06:16.003Z,77.43
2018-03-03T08:08:44.657Z,85.73
2018-03-03T08:11:12.205Z,81.50
2018-03-03T08:13:39.766Z,91.57
2018-03-03T08:16:07.393Z,86.83
2018-03-03T08:18:34.939Z,84.03
2018-03-03T08:21:02.508Z,85.23
2018-03-03T08:23:30.157Z,82.07
2018-03-03T08:25:57.836Z,85.37
2018-03-03T08:28:25.389Z,84.30
2018-03-03T08:30:53.724Z,80.47
2018-03-03T08:33:21.444Z,88.03
2018-03-03T08:35:50.052Z,81.27
2018-03-03T08:38:18.260Z,83.53
2018-03-03T08:40:45.863Z,89.47
2018-03-03T08:43:13.429Z,85.83
2018-03-03T08:45:41.001Z,87.87
2018-03-03T08:48:08.545Z,77.60
2018-03-03T08:50:36.088Z,91.93
2018-03-03T08:53:03.668Z,85.03
2018-03-03T08:55:31.972Z,85.07
2018-03-03T08:57:59.560Z,83.63
2018-03-03T09:00:27.132Z,83.17
2018-03-03T09:02:54.681Z,86.03
2018-03-03T09:05:22.248Z,81.27
2018-03-03T09:07:50.613Z,84.10
2018-03-03T09:10:18.193Z,83.87
2018-03-03T09:12:45.767Z,88.63
2018-03-03T09:15:13.331Z,82.80
2018-03-03T09:17:40.899Z,84.83
2018-03-03T09:20:08.443Z,80.33
2018-03-03T09:22:36.269Z,87.27
2018-03-03T09:25:04.585Z,80.00
2018-03-03T09:27:32.141Z,81.80
2018-03-03T09:29:59.729Z,89.53
2018-03-03T09:32:27.272Z,83.17
2018-03-03T09:34:55.581Z,80.43
2018-03-03T09:37:23.153Z,82.23
2018-03-03T09:39:50.688Z,79.17
2018-03-03T09:42:18.299Z,70.63
2018-03-03T09:44:45.885Z,76.53
2018-03-03T09:47:13.451Z,80.83
2018-03-03T09:49:41.000Z,77.70
2018-03-03T09:52:08.935Z,75.37
2018-03-03T09:54:36.484Z,72.30
2018-03-03T09:57:04.038Z,78.23
2018-03-03T09:59:31.621Z,78.30
2018-03-03T10:04:26.719Z,74.17
2018-03-03T10:06:55.055Z,71.83
2018-03-03T10:09:22.592Z,78.37
2018-03-03T10:11:50.248Z,78.33
2018-03-03T10:14:17.899Z,80.07
2018-03-03T10:16:45.458Z,76.57
2018-03-03T10:19:13.023Z,76.00
2018-03-03T10:21:40.636Z,76.53
2018-03-03T10:24:08.185Z,71.83
2018-03-03T10:26:35.728Z,72.03
2018-03-03T10:29:03.359Z,67.30
2018-03-03T10:31:31.663Z,64.03
2018-03-03T10:34:00.053Z,70.57
2018-03-03T10:36:28.387Z,65.27
2018-03-03T10:38:55.924Z,61.60
2018-03-03T10:41:23.469Z,64.10
2018-03-03T10:43:51.806Z,58.20
2018-03-03T10:46:19.360Z,60.10
2018-03-03T10:48:46.922Z,60.20
2018-03-03T10:51:14.520Z,57.13
2018-03-03T10:53:42.064Z,60.07
2018-03-03T10:56:10.364Z,62.67
2018-03-03T10:58:37.930Z,58.27
2018-03-03T11:01:06.240Z,60.47
2018-03-03T11:03:33.807Z,56.47
2018-03-03T11:06:01.375Z,53.67
2018-03-03T11:08:28.921Z,56.10
2018-03-03T11:10:57.865Z,57.07
2018-03-03T11:13:25.479Z,54.97
2018-03-03T11:15:53.024Z,56.27
2018-03-03T11:18:20.589Z,57.00
2018-03-03T11:20:48.190Z,58.37
2018-03-03T11:23:15.753Z,57.97
2018-03-03T11:25:43.297Z,60.47
2018-03-03T11:28:10.889Z,60.87
2018-03-03T11:30:38.460Z,63.70
2018-03-03T11:33:06.020Z,61.57
2018-03-03T11:35:33.606Z,60.60
2018-03-03T11:38:01.961Z,62.77
2018-03-03T11:40:33.135Z,62.83
2018-03-03T11:42:57.093Z,59.57
2018-03-03T11:45:24.640Z,60.37
2018-03-03T11:47:52.964Z,56.33
2018-03-03T11:50:20.803Z,59.07
2018-03-03T11:52:48.357Z,61.93
2018-03-03T11:55:15.928Z,61.33
2018-03-03T11:57:43.587Z,61.77
2018-03-03T12:00:11.131Z,60.40
2018-03-03T12:02:38.672Z,59.83
2018-03-03T12:05:07.246Z,59.60
2018-03-03T12:07:34.788Z,59.23
2018-03-03T12:10:02.340Z,55.17
2018-03-03T12:12:29.908Z,55.67
2018-03-03T12:14:57.476Z,58.10
2018-03-03T12:17:25.028Z,54.83
2018-03-03T12:19:53.361Z,56.77
2018-03-03T12:22:20.908Z,62.63
2018-03-03T12:24:48.472Z,59.33
2018-03-03T12:27:16.440Z,58.90
2018-03-03T12:29:44.878Z,54.07
2018-03-03T12:32:13.052Z,55.70
2018-03-03T12:34:40.636Z,58.47
2018-03-03T12:37:08.180Z,59.77
2018-03-03T12:39:35.728Z,59.37
2018-03-03T12:42:03.318Z,60.40
2018-03-03T12:44:30.860Z,60.33
2018-03-03T12:46:59.184Z,58.90
2018-03-03T12:49:26.751Z,61.63
2018-03-03T12:51:54.349Z,63.60
2018-03-03T12:54:22.050Z,59.93
2018-03-03T12:56:49.667Z,62.80
2018-03-03T12:59:17.244Z,63.80
2018-03-03T13:01:44.789Z,64.37
2018-03-03T13:04:13.153Z,66.43
2018-03-03T13:06:40.728Z,61.47
2018-03-03T13:09:08.268Z,60.60
2018-03-03T13:11:35.846Z,62.37
2018-03-03T13:14:03.396Z,63.63
2018-03-03T13:16:30.936Z,63.37
2018-03-03T13:18:59.299Z,65.00
2018-03-03T13:21:26.852Z,63.37
2018-03-03T13:23:54.421Z,67.57
2018-03-03T13:26:22.796Z,62.83
2018-03-03T13:28:50.345Z,66.53
2018-03-03T13:31:17.888Z,65.20
2018-03-03T13:33:46.233Z,63.57
2018-03-03T13:36:13.781Z,63.13
2018-03-03T13:38:41.319Z,65.50
2018-03-03T13:41:09.671Z,65.10
2018-03-03T13:43:37.977Z,67.00
2018-03-03T13:46:05.524Z,62.67
2018-03-03T13:48:33.108Z,61.83
2018-03-03T13:51:01.419Z,57.60
2018-03-03T13:53:29.017Z,63.43
2018-03-03T13:55:56.567Z,58.53
2018-03-03T13:58:24.112Z,58.47
2018-03-03T14:00:51.656Z,60.20
2018-03-03T14:03:20.119Z,60.20
2018-03-03T14:05:48.449Z,64.27
2018-03-03T14:08:17.385Z,61.63
2018-03-03T14:10:45.042Z,63.03
2018-03-03T14:13:12.584Z,61.77
2018-03-03T14:15:40.131Z,59.10
2018-03-03T14:18:08.714Z,59.60
2018-03-03T14:20:37.028Z,64.63
2018-03-03T14:23:04.624Z,65.07
2018-03-03T14:25:32.197Z,66.30
2018-03-03T14:27:59.737Z,63.63
2018-03-03T14:30:27.276Z,65.20
2018-03-03T14:32:54.848Z,65.63
2018-03-03T14:35:22.391Z,62.20
2018-03-03T14:37:49.939Z,65.10
2018-03-03T14:40:17.850Z,64.10
2018-03-03T14:42:45.418Z,63.30
2018-03-03T14:45:12.980Z,62.90
2018-03-03T14:47:40.818Z,65.13
2018-03-03T14:50:08.426Z,63.57
2018-03-03T14:52:36.807Z,62.93
2018-03-03T14:55:04.945Z,60.17
2018-03-03T14:57:32.528Z,62.10
2018-03-03T15:00:00.094Z,61.97
2018-03-03T15:02:28.773Z,58.53
2018-03-03T15:04:56.320Z,59.07
2018-03-03T15:07:23.864Z,58.33
2018-03-03T15:09:51.760Z,62.87
2018-03-03T15:12:20.251Z,54.97
2018-03-03T15:14:47.835Z,55.20
2018-03-03T15:17:15.550Z,57.77
2018-03-03T15:19:43.866Z,58.13
2018-03-03T15:22:11.424Z,57.47
2018-03-03T15:24:39.249Z,55.73
2018-03-03T15:27:06.783Z,58.50
2018-03-03T15:29:34.323Z,60.27
2018-03-03T15:32:02.664Z,57.63
2018-03-03T15:34:30.204Z,57.03
2018-03-03T15:36:57.749Z,56.63
2018-03-03T15:39:25.412Z,53.73
2018-03-03T15:41:52.908Z,53.53
2018-03-03T15:44:20.516Z,53.77
2018-03-03T15:46:48.083Z,58.90
2018-03-03T15:49:15.668Z,53.60
2018-03-03T15:51:43.224Z,54.97
2018-03-03T15:54:10.792Z,59.77
2018-03-03T15:56:38.336Z,58.77
2018-03-03T15:59:06.655Z,65.07
2018-03-03T16:01:34.282Z,62.07
2018-03-03T16:04:01.824Z,69.83
2018-03-03T16:06:29.373Z,64.30
2018-03-03T16:08:56.983Z,64.70
2018-03-03T16:11:24.568Z,68.67
2018-03-03T16:13:52.117Z,64.77
2018-03-03T16:16:19.697Z,69.70
2018-03-03T16:18:47.252Z,64.37
2018-03-03T16:21:14.944Z,63.07
2018-03-03T16:23:44.263Z,72.73
2018-03-03T16:26:12.902Z,67.03
2018-03-03T16:28:40.505Z,68.03
2018-03-03T16:31:08.072Z,73.30
2018-03-03T16:33:35.616Z,67.07
2018-03-03T16:36:03.205Z,72.27
2018-03-03T16:38:31.324Z,69.00
2018-03-03T16:40:59.032Z,70.70
2018-03-03T16:43:27.260Z,72.47
2018-03-03T16:45:54.868Z,72.07
2018-03-03T16:48:22.440Z,71.97
2018-03-03T16:50:49.980Z,68.13
2018-03-03T16:53:17.568Z,69.47
2018-03-03T16:55:45.123Z,74.10
2018-03-03T16:58:12.679Z,72.07
2018-03-03T17:00:40.569Z,71.53
2018-03-03T17:03:08.131Z,65.77
2018-03-03T17:05:35.672Z,70.93
2018-03-03T17:08:04.439Z,71.50
2018-03-03T17:10:34.737Z,69.43
2018-03-03T17:13:02.285Z,70.17
2018-03-03T17:15:29.878Z,67.07
2018-03-03T17:17:57.423Z,71.50
2018-03-03T17:20:25.480Z,73.97
2018-03-03T17:22:53.053Z,72.53
2018-03-03T17:25:20.619Z,76.53
2018-03-03T17:27:48.862Z,65.67
2018-03-03T17:30:16.460Z,72.17
2018-03-03T17:32:44.013Z,72.73
2018-03-03T17:35:11.606Z,71.73
2018-03-03T17:37:39.839Z,75.13
2018-03-03T17:40:07.388Z,74.10
2018-03-03T17:42:35.724Z,73.63
2018-03-03T17:45:03.372Z,74.37
2018-03-03T17:47:30.890Z,71.87
2018-03-03T17:49:58.452Z,71.23
2018-03-03T17:52:26.024Z,76.40
2018-03-03T17:54:53.568Z,70.07
2018-03-03T17:57:21.117Z,73.90
2018-03-03T17:59:50.257Z,73.43
2018-03-03T18:02:17.816Z,69.70
2018-03-03T18:04:45.386Z,68.70
2018-03-03T18:07:12.964Z,72.53
2018-03-03T18:09:40.752Z,72.87
2018-03-03T18:12:08.076Z,70.37
2018-03-03T18:14:35.656Z,67.97
2018-03-03T18:17:04.011Z,77.27
2018-03-03T18:19:35.384Z,75.33
2018-03-03T18:22:02.994Z,76.90
2018-03-03T18:24:36.346Z,70.13
2018-03-03T18:27:03.932Z,71.17
2018-03-03T18:29:32.268Z,73.50
2018-03-03T18:31:59.834Z,76.83
2018-03-03T18:34:27.376Z,79.50
2018-03-03T18:36:54.929Z,75.20
2018-03-03T18:39:22.548Z,77.63
2018-03-03T18:41:50.099Z,79.83
2018-03-03T18:44:18.418Z,80.30
2018-03-03T18:46:45.996Z,81.63
2018-03-03T18:49:13.545Z,80.50
2018-03-03T18:51:41.107Z,76.43
2018-03-03T18:54:08.683Z,77.93
2018-03-03T18:56:36.224Z,78.83
2018-03-03T18:59:03.784Z,79.30
2018-03-03T19:01:31.397Z,87.33
2018-03-03T19:03:58.951Z,85.27
2018-03-03T19:06:27.265Z,84.77
2018-03-03T19:08:55.188Z,87.47
2018-03-03T19:11:22.748Z,82.13
2018-03-03T19:13:50.331Z,84.77
2018-03-03T19:16:18.705Z,84.77
2018-03-03T19:18:46.288Z,93.03
2018-03-03T19:21:13.860Z,86.33
2018-03-03T19:23:41.443Z,80.00
2018-03-03T19:26:08.992Z,80.13
2018-03-03T19:28:36.638Z,85.07
2018-03-03T19:31:04.248Z,85.50
2018-03-03T19:33:31.796Z,70.13
2018-03-03T19:35:59.340Z,79.03
2018-03-03T19:38:26.930Z,89.67
2018-03-03T19:40:54.472Z,86.27
2018-03-03T19:43:22.998Z,85.27
2018-03-03T19:46:10.424Z,83.97
2018-03-03T19:48:37.976Z,84.27
2018-03-03T19:51:05.526Z,87.40
2018-03-03T19:53:33.173Z,84.27
2018-03-03T19:56:01.473Z,89.97
2018-03-03T19:58:29.048Z,87.60
2018-03-03T20:00:56.615Z,79.67
2018-03-03T20:03:24.152Z,90.47
2018-03-03T20:05:52.453Z,85.20
2018-03-03T20:08:20.041Z,82.93
2018-03-03T20:10:47.602Z,76.00
2018-03-03T20:13:15.189Z,90.47
2018-03-03T20:15:42.795Z,89.40
2018-03-03T20:18:10.347Z,95.70
2018-03-03T20:20:37.899Z,90.70
2018-03-03T20:23:05.497Z,96.33
2018-03-03T20:25:33.048Z,90.23
2018-03-03T20:28:00.596Z,84.67
2018-03-03T20:30:28.179Z,81.40
2018-03-03T20:32:56.360Z,87.80
2018-03-03T20:35:23.905Z,85.27
2018-03-03T20:37:52.268Z,85.07
2018-03-03T20:40:19.816Z,84.47
2018-03-03T20:42:47.400Z,87.30
2018-03-03T20:45:15.009Z,90.53
2018-03-03T20:47:43.942Z,90.63
2018-03-03T20:50:11.509Z,85.20
2018-03-03T20:52:39.098Z,92.53
2018-03-03T20:55:06.645Z,85.93
2018-03-03T20:57:34.192Z,87.50
2018-03-03T21:00:02.782Z,91.40
2018-03-03T21:02:31.096Z,91.50
2018-03-03T21:04:58.646Z,91.10
2018-03-03T21:07:26.994Z,91.50
2018-03-03T21:09:54.541Z,100.83
2018-03-03T21:12:34.972Z,89.70
2018-03-03T21:15:02.521Z,92.90
2018-03-03T21:17:30.072Z,94.33
2018-03-03T21:19:57.648Z,88.73
2018-03-03T21:22:25.188Z,97.57
2018-03-03T21:24:52.732Z,88.47
2018-03-03T21:27:21.101Z,104.70
2018-03-03T21:29:48.659Z,94.70
2018-03-03T21:32:16.226Z,99.13
2018-03-03T21:34:43.792Z,95.23
2018-03-03T21:37:11.343Z,96.53
2018-03-03T21:39:38.904Z,83.33
2018-03-03T21:42:06.480Z,92.33
2018-03-03T21:44:34.055Z,91.83
2018-03-03T21:47:01.610Z,90.93
2018-03-03T21:49:29.944Z,89.13
2018-03-03T21:51:57.492Z,91.10
2018-03-03T21:54:25.038Z,99.70
2018-03-03T21:56:53.404Z,93.97
2018-03-03T21:59:20.951Z,102.50
2018-03-03T22:01:48.492Z,102.33
2018-03-03T22:04:16.066Z,90.43
2018-03-03T22:06:43.626Z,93.70
2018-03-03T22:09:11.165Z,85.47
2018-03-03T22:11:39.521Z,96.67
2018-03-03T22:14:07.064Z,97.53
2018-03-03T22:16:34.616Z,103.13
2018-03-03T22:19:02.970Z,91.13
2018-03-03T22:21:30.512Z,91.97
2018-03-03T22:23:58.048Z,94.73
2018-03-03T22:26:27.708Z,92.43
2018-03-03T22:28:55.252Z,92.50
2018-03-03T22:31:22.801Z,92.27
2018-03-03T22:33:51.522Z,88.47
2018-03-03T22:36:19.184Z,86.60
2018-03-03T22:38:46.801Z,90.10
2018-03-03T22:41:14.407Z,94.60
2018-03-03T22:43:42.733Z,97.60
2018-03-03T22:46:10.343Z,93.47
2018-03-03T22:48:38.204Z,96.40
2018-03-03T22:51:05.761Z,90.47
2018-03-03T22:53:33.689Z,95.63
2018-03-03T22:56:01.531Z,96.47
2018-03-03T22:58:29.846Z,97.23
2018-03-03T23:00:57.393Z,93.43
2018-03-03T23:03:24.975Z,93.47
2018-03-03T23:05:52.523Z,94.97
2018-03-03T23:08:20.099Z,95.83
2018-03-03T23:10:48.203Z,98.00
2018-03-03T23:13:15.782Z,98.97
2018-03-03T23:15:43.381Z,101.13
2018-03-03T23:18:11.724Z,96.43
2018-03-03T23:20:39.265Z,94.93
2018-03-03T23:23:06.809Z,96.67
2018-03-03T23:25:34.381Z,106.80
2018-03-03T23:28:02.696Z,103.20
2018-03-03T23:30:30.248Z,102.20
2018-03-03T23:32:58.586Z,99.40
2018-03-03T23:35:26.140Z,95.23
2018-03-03T23:37:53.672Z,94.83
2018-03-03T23:40:21.506Z,98.73
2018-03-03T23:42:49.052Z,97.73
2018-03-03T23:45:16.612Z,97.70
2018-03-03T23:47:44.194Z,108.97
2018-03-03T23:50:11.732Z,94.23
2018-03-03T23:52:39.288Z,103.40
2018-03-03T23:55:06.860Z,101.97
2018-03-03T23:57:34.417Z,103.87
